WMT1LN LIPZ-LEBL
Flight info
| Callsign | WMT1LN |
|---|---|
| Flight time | N/A |
| Altitude | 33000 |
| Route | CHI6L/04R CHI DCT GEKBA DCT VAMTU DCT KOLON DCT GANGU DCT PADKO DCT DIVKO DCT NILDU DCT BISBA |
| Aircraft | A321/M-SDE1E2E3FGIJ1J4RWXY/LB1 |
Departure
| Time | N/A |
|---|---|
| Airport | Venice Marco Polo Airport (LIPZ) |
Arrival
| Time | 2026-05-03 20:34 |
|---|---|
| Airport | Josep Tarradellas Barcelona-El Prat Airport (LEBL) |
| Time | Latitude | Longitude | Altitude | Speed | Heading |
|---|---|---|---|---|---|
| 2026-05-03 20:15 | 41.79828 | 2.84356 | 20134 ft | 328 kts | 243° |
| 2026-05-03 20:15 | 41.78809 | 2.81630 | 19892 ft | 327 kts | 243° |
| 2026-05-03 20:15 | 41.77777 | 2.78874 | 19663 ft | 326 kts | 243° |
| 2026-05-03 20:15 | 41.76774 | 2.76202 | 19428 ft | 325 kts | 243° |
| 2026-05-03 20:16 | 41.75760 | 2.73498 | 19190 ft | 324 kts | 243° |
| 2026-05-03 20:16 | 41.74748 | 2.70809 | 18949 ft | 323 kts | 243° |
| 2026-05-03 20:16 | 41.73737 | 2.68124 | 18702 ft | 322 kts | 243° |
| 2026-05-03 20:16 | 41.72730 | 2.65454 | 18506 ft | 320 kts | 243° |
| 2026-05-03 20:17 | 41.71733 | 2.62806 | 18091 ft | 317 kts | 242° |
| 2026-05-03 20:17 | 41.70742 | 2.60179 | 17632 ft | 315 kts | 242° |
| 2026-05-03 20:17 | 41.69757 | 2.57577 | 17178 ft | 313 kts | 242° |
| 2026-05-03 20:17 | 41.68777 | 2.54993 | 16740 ft | 310 kts | 242° |
| 2026-05-03 20:18 | 41.67801 | 2.52425 | 16290 ft | 309 kts | 242° |
| 2026-05-03 20:18 | 41.66831 | 2.49872 | 15862 ft | 306 kts | 242° |
| 2026-05-03 20:18 | 41.65869 | 2.47342 | 15463 ft | 305 kts | 242° |
| 2026-05-03 20:18 | 41.64912 | 2.44823 | 15052 ft | 303 kts | 242° |
| 2026-05-03 20:19 | 41.63964 | 2.42322 | 14650 ft | 301 kts | 242° |
| 2026-05-03 20:19 | 41.63017 | 2.39827 | 14253 ft | 300 kts | 242° |
| 2026-05-03 20:19 | 41.62077 | 2.37358 | 13861 ft | 298 kts | 242° |
| 2026-05-03 20:19 | 41.61140 | 2.34895 | 13436 ft | 296 kts | 242° |
| 2026-05-03 20:20 | 41.60211 | 2.32451 | 12996 ft | 295 kts | 242° |
| 2026-05-03 20:20 | 41.59282 | 2.30013 | 12559 ft | 294 kts | 242° |
| 2026-05-03 20:20 | 41.58365 | 2.27617 | 12137 ft | 293 kts | 242° |
| 2026-05-03 20:20 | 41.57425 | 2.25167 | 11699 ft | 293 kts | 242° |
| 2026-05-03 20:21 | 41.56510 | 2.22785 | 11290 ft | 292 kts | 242° |
| 2026-05-03 20:21 | 41.55588 | 2.20377 | 10880 ft | 291 kts | 242° |
| 2026-05-03 20:21 | 41.54667 | 2.17973 | 10476 ft | 290 kts | 242° |
| 2026-05-03 20:21 | 41.53748 | 2.15577 | 10070 ft | 290 kts | 243° |
| 2026-05-03 20:22 | 41.52846 | 2.13222 | 9876 ft | 281 kts | 243° |
| 2026-05-03 20:22 | 41.51932 | 2.10958 | 9614 ft | 275 kts | 237° |
| 2026-05-03 20:22 | 41.50806 | 2.08907 | 9257 ft | 273 kts | 232° |
| 2026-05-03 20:22 | 41.49652 | 2.06907 | 8894 ft | 271 kts | 232° |
| 2026-05-03 20:23 | 41.48508 | 2.04914 | 8524 ft | 270 kts | 232° |
| 2026-05-03 20:23 | 41.47353 | 2.02903 | 8162 ft | 269 kts | 232° |
| 2026-05-03 20:23 | 41.46232 | 2.00950 | 7824 ft | 268 kts | 232° |
| 2026-05-03 20:23 | 41.45104 | 1.98985 | 7481 ft | 266 kts | 232° |
| 2026-05-03 20:24 | 41.43981 | 1.97029 | 7121 ft | 265 kts | 232° |
| 2026-05-03 20:24 | 41.42860 | 1.95076 | 6780 ft | 264 kts | 232° |
| 2026-05-03 20:24 | 41.41748 | 1.93135 | 6432 ft | 263 kts | 232° |
| 2026-05-03 20:24 | 41.40642 | 1.91204 | 6080 ft | 262 kts | 232° |
| 2026-05-03 20:25 | 41.39535 | 1.89279 | 5712 ft | 262 kts | 232° |
| 2026-05-03 20:25 | 41.38425 | 1.87354 | 5320 ft | 262 kts | 232° |
| 2026-05-03 20:25 | 41.37317 | 1.85435 | 4946 ft | 262 kts | 231° |
| 2026-05-03 20:25 | 41.36206 | 1.83510 | 4601 ft | 262 kts | 231° |
| 2026-05-03 20:26 | 41.35096 | 1.81592 | 4254 ft | 262 kts | 231° |
| 2026-05-03 20:26 | 41.33987 | 1.79674 | 3887 ft | 261 kts | 231° |
| 2026-05-03 20:26 | 41.33235 | 1.78378 | 3652 ft | 261 kts | 231° |
| 2026-05-03 20:26 | 41.32146 | 1.76501 | 3330 ft | 259 kts | 231° |
| 2026-05-03 20:27 | 41.31052 | 1.74615 | 3188 ft | 249 kts | 231° |
| 2026-05-03 20:27 | 41.30014 | 1.72872 | 3075 ft | 238 kts | 225° |
| 2026-05-03 20:27 | 41.28703 | 1.71665 | 2982 ft | 224 kts | 200° |
| 2026-05-03 20:27 | 41.27185 | 1.71308 | 2986 ft | 223 kts | 175° |
| 2026-05-03 20:28 | 41.25712 | 1.71817 | 2981 ft | 220 kts | 152° |
| 2026-05-03 20:28 | 41.24525 | 1.73080 | 2977 ft | 221 kts | 128° |
| 2026-05-03 20:28 | 41.23749 | 1.74846 | 2977 ft | 223 kts | 118° |
| 2026-05-03 20:28 | 41.23039 | 1.76673 | 2977 ft | 223 kts | 117° |
| 2026-05-03 20:29 | 41.22320 | 1.78508 | 2975 ft | 224 kts | 118° |
| 2026-05-03 20:29 | 41.21671 | 1.80360 | 3008 ft | 216 kts | 109° |
| 2026-05-03 20:29 | 41.21430 | 1.82303 | 2988 ft | 212 kts | 92° |
| 2026-05-03 20:29 | 41.21659 | 1.84228 | 2980 ft | 213 kts | 73° |
| 2026-05-03 20:30 | 41.22207 | 1.86052 | 2984 ft | 213 kts | 67° |
| 2026-05-03 20:30 | 41.22822 | 1.87844 | 2998 ft | 213 kts | 66° |
| 2026-05-03 20:30 | 41.23442 | 1.89631 | 2851 ft | 212 kts | 67° |
| 2026-05-03 20:30 | 41.24052 | 1.91393 | 2605 ft | 209 kts | 66° |
| 2026-05-03 20:31 | 41.24650 | 1.93140 | 2360 ft | 205 kts | 66° |
| 2026-05-03 20:31 | 41.25226 | 1.94799 | 2078 ft | 189 kts | 66° |
| 2026-05-03 20:31 | 41.25745 | 1.96304 | 1840 ft | 168 kts | 66° |
| 2026-05-03 20:31 | 41.26205 | 1.97646 | 1619 ft | 153 kts | 65° |
| 2026-05-03 20:32 | 41.26637 | 1.98905 | 1412 ft | 148 kts | 65° |
| 2026-05-03 20:32 | 41.27065 | 2.00144 | 1211 ft | 147 kts | 65° |
| 2026-05-03 20:32 | 41.27490 | 2.01383 | 1019 ft | 146 kts | 66° |
| 2026-05-03 20:32 | 41.27914 | 2.02618 | 809 ft | 147 kts | 64° |
| 2026-05-03 20:33 | 41.28340 | 2.03856 | 615 ft | 148 kts | 66° |
| 2026-05-03 20:33 | 41.28766 | 2.05104 | 413 ft | 149 kts | 64° |
| 2026-05-03 20:33 | 41.29198 | 2.06360 | 215 ft | 148 kts | 64° |
| 2026-05-03 20:33 | 41.29613 | 2.07580 | 35 ft | 146 kts | 64° |
| 2026-05-03 20:34 | 41.29990 | 2.08667 | 23 ft | 108 kts | 67° |
| 2026-05-03 20:34 | 41.30231 | 2.09375 | 17 ft | 57 kts | 65° |
| 2026-05-03 20:34 | 41.30343 | 2.09695 | 18 ft | 26 kts | 65° |
| 2026-05-03 20:34 | 41.30423 | 2.09758 | 18 ft | 12 kts | 336° |
| 2026-05-03 20:35 | 41.30490 | 2.09719 | 18 ft | 9 kts | 336° |
| 2026-05-03 20:35 | 41.30544 | 2.09686 | 20 ft | 8 kts | 333° |
| 2026-05-03 20:35 | 41.30560 | 2.09619 | 19 ft | 11 kts | 257° |
| 2026-05-03 20:35 | 41.30527 | 2.09518 | 21 ft | 13 kts | 246° |
| 2026-05-03 20:36 | 41.30490 | 2.09405 | 19 ft | 14 kts | 246° |
| 2026-05-03 20:36 | 41.30447 | 2.09285 | 19 ft | 15 kts | 245° |
| 2026-05-03 20:36 | 41.30402 | 2.09158 | 20 ft | 16 kts | 245° |
| 2026-05-03 20:36 | 41.30351 | 2.09012 | 20 ft | 18 kts | 245° |
| 2026-05-03 20:37 | 41.30307 | 2.08882 | 18 ft | 13 kts | 246° |
| 2026-05-03 20:37 | 41.30269 | 2.08769 | 20 ft | 14 kts | 246° |
| 2026-05-03 20:37 | 41.30228 | 2.08646 | 19 ft | 15 kts | 246° |
| 2026-05-03 20:37 | 41.30192 | 2.08536 | 20 ft | 13 kts | 246° |
| 2026-05-03 20:38 | 41.30151 | 2.08422 | 21 ft | 14 kts | 245° |
| 2026-05-03 20:38 | 41.30108 | 2.08297 | 21 ft | 16 kts | 245° |
| 2026-05-03 20:38 | 41.30120 | 2.08213 | 18 ft | 11 kts | 338° |
| 2026-05-03 20:38 | 41.30185 | 2.08171 | 18 ft | 7 kts | 310° |
| 2026-05-03 20:39 | 41.30180 | 2.08099 | 20 ft | 9 kts | 253° |
| 2026-05-03 20:39 | 41.30193 | 2.08042 | 19 ft | 4 kts | 328° |
| 2026-05-03 20:39 | 41.30217 | 2.08035 | 20 ft | 3 kts | 358° |
| 2026-05-03 20:39 | 41.30239 | 2.08036 | 20 ft | 3 kts | 5° |
| 2026-05-03 20:40 | 41.30242 | 2.08037 | 20 ft | 0 kts | 5° |